sensor_id;sensor_type;location;lat;lon;timestamp;P1;P2;P0
78842;PMS5003;70542;53.774;-0.352;2024-01-16T00:05:17;5;5;
78842;PMS5003;70542;53.774;-0.352;2024-01-16T00:10:56;6;6;
78842;PMS5003;70542;53.774;-0.352;2024-01-16T00:16:41;2;2;
78842;PMS5003;70542;53.774;-0.352;2024-01-16T00:22:20;7;7;
78842;PMS5003;70542;53.774;-0.352;2024-01-16T00:28:09;0;0;
78842;PMS5003;70542;53.774;-0.352;2024-01-16T00:33:48;1;1;
78842;PMS5003;70542;53.774;-0.352;2024-01-16T00:39:28;4;4;
78842;PMS5003;70542;53.774;-0.352;2024-01-16T00:45:17;2;2;
78842;PMS5003;70542;53.774;-0.352;2024-01-16T00:50:56;0;0;
78842;PMS5003;70542;53.774;-0.352;2024-01-16T00:56:35;1;1;
78842;PMS5003;70542;53.774;-0.352;2024-01-16T01:02:19;2;2;
78842;PMS5003;70542;53.774;-0.352;2024-01-16T01:08:03;2;2;
78842;PMS5003;70542;53.774;-0.352;2024-01-16T01:13:47;2;2;
78842;PMS5003;70542;53.774;-0.352;2024-01-16T01:19:26;0;0;
78842;PMS5003;70542;53.774;-0.352;2024-01-16T01:25:07;2;2;
78842;PMS5003;70542;53.774;-0.352;2024-01-16T01:30:51;1;1;
78842;PMS5003;70542;53.774;-0.352;2024-01-16T01:36:30;1;1;
78842;PMS5003;70542;53.774;-0.352;2024-01-16T01:42:09;1;1;
78842;PMS5003;70542;53.774;-0.352;2024-01-16T01:47:47;0;0;
78842;PMS5003;70542;53.774;-0.352;2024-01-16T01:53:27;1;1;
78842;PMS5003;70542;53.774;-0.352;2024-01-16T01:59:06;1;1;
78842;PMS5003;70542;53.774;-0.352;2024-01-16T02:04:51;1;1;
78842;PMS5003;70542;53.774;-0.352;2024-01-16T02:10:30;4;4;
78842;PMS5003;70542;53.774;-0.352;2024-01-16T02:21:59;2;2;
78842;PMS5003;70542;53.774;-0.352;2024-01-16T02:27:52;6;6;
78842;PMS5003;70542;53.774;-0.352;2024-01-16T02:33:41;7;7;
78842;PMS5003;70542;53.774;-0.352;2024-01-16T02:39:26;6;6;
78842;PMS5003;70542;53.774;-0.352;2024-01-16T02:45:10;1;1;
78842;PMS5003;70542;53.774;-0.352;2024-01-16T02:50:53;5;5;
78842;PMS5003;70542;53.774;-0.352;2024-01-16T02:56:38;7;7;
78842;PMS5003;70542;53.774;-0.352;2024-01-16T03:02:17;4;4;
78842;PMS5003;70542;53.774;-0.352;2024-01-16T03:07:56;11;11;
78842;PMS5003;70542;53.774;-0.352;2024-01-16T03:13:40;10;10;
78842;PMS5003;70542;53.774;-0.352;2024-01-16T03:19:19;10;10;
78842;PMS5003;70542;53.774;-0.352;2024-01-16T03:24:58;12;12;
78842;PMS5003;70542;53.774;-0.352;2024-01-16T03:30:42;11;11;
78842;PMS5003;70542;53.774;-0.352;2024-01-16T03:36:21;12;10;
78842;PMS5003;70542;53.774;-0.352;2024-01-16T03:42:00;11;11;
78842;PMS5003;70542;53.774;-0.352;2024-01-16T03:47:44;11;11;
78842;PMS5003;70542;53.774;-0.352;2024-01-16T03:53:24;14;11;
78842;PMS5003;70542;53.774;-0.352;2024-01-16T03:59:03;13;13;
78842;PMS5003;70542;53.774;-0.352;2024-01-16T04:04:42;10;10;
78842;PMS5003;70542;53.774;-0.352;2024-01-16T04:10:22;26;26;
78842;PMS5003;70542;53.774;-0.352;2024-01-16T04:16:02;4;4;
78842;PMS5003;70542;53.774;-0.352;2024-01-16T04:21:49;11;11;
78842;PMS5003;70542;53.774;-0.352;2024-01-16T04:27:28;9;9;
78842;PMS5003;70542;53.774;-0.352;2024-01-16T04:33:07;13;13;
78842;PMS5003;70542;53.774;-0.352;2024-01-16T04:38:47;12;12;
78842;PMS5003;70542;53.774;-0.352;2024-01-16T04:44:26;6;6;
78842;PMS5003;70542;53.774;-0.352;2024-01-16T04:50:05;11;11;
78842;PMS5003;70542;53.774;-0.352;2024-01-16T04:55:45;31;29;
78842;PMS5003;70542;53.774;-0.352;2024-01-16T05:01:24;8;7;
78842;PMS5003;70542;53.774;-0.352;2024-01-16T05:07:07;20;20;
78842;PMS5003;70542;53.774;-0.352;2024-01-16T05:12:51;23;23;
78842;PMS5003;70542;53.774;-0.352;2024-01-16T05:18:30;11;11;
78842;PMS5003;70542;53.774;-0.352;2024-01-16T05:24:08;10;10;
78842;PMS5003;70542;53.774;-0.352;2024-01-16T05:29:47;5;5;
78842;PMS5003;70542;53.774;-0.352;2024-01-16T05:35:32;10;7;
78842;PMS5003;70542;53.774;-0.352;2024-01-16T05:41:10;8;8;
78842;PMS5003;70542;53.774;-0.352;2024-01-16T05:46:49;7;4;
78842;PMS5003;70542;53.774;-0.352;2024-01-16T05:52:28;10;10;
78842;PMS5003;70542;53.774;-0.352;2024-01-16T05:58:06;7;7;
78842;PMS5003;70542;53.774;-0.352;2024-01-16T06:03:45;11;11;
78842;PMS5003;70542;53.774;-0.352;2024-01-16T06:09:38;7;7;
78842;PMS5003;70542;53.774;-0.352;2024-01-16T06:15:22;12;12;
78842;PMS5003;70542;53.774;-0.352;2024-01-16T06:21:01;11;9;
78842;PMS5003;70542;53.774;-0.352;2024-01-16T06:26:45;11;11;
78842;PMS5003;70542;53.774;-0.352;2024-01-16T06:32:29;27;27;
78842;PMS5003;70542;53.774;-0.352;2024-01-16T06:38:13;22;19;
78842;PMS5003;70542;53.774;-0.352;2024-01-16T06:43:52;16;16;
78842;PMS5003;70542;53.774;-0.352;2024-01-16T06:49:30;23;14;
78842;PMS5003;70542;53.774;-0.352;2024-01-16T06:55:10;8;8;
78842;PMS5003;70542;53.774;-0.352;2024-01-16T07:00:49;13;13;
78842;PMS5003;70542;53.774;-0.352;2024-01-16T07:06:28;7;7;
78842;PMS5003;70542;53.774;-0.352;2024-01-16T07:12:17;8;8;
78842;PMS5003;70542;53.774;-0.352;2024-01-16T07:17:58;8;8;
78842;PMS5003;70542;53.774;-0.352;2024-01-16T07:23:43;15;12;
78842;PMS5003;70542;53.774;-0.352;2024-01-16T07:29:27;4;4;
78842;PMS5003;70542;53.774;-0.352;2024-01-16T07:35:06;6;6;
78842;PMS5003;70542;53.774;-0.352;2024-01-16T07:40:45;7;7;
78842;PMS5003;70542;53.774;-0.352;2024-01-16T07:46:30;5;5;
78842;PMS5003;70542;53.774;-0.352;2024-01-16T07:52:14;11;8;
78842;PMS5003;70542;53.774;-0.352;2024-01-16T07:57:55;3;3;
78842;PMS5003;70542;53.774;-0.352;2024-01-16T08:03:34;8;5;
78842;PMS5003;70542;53.774;-0.352;2024-01-16T08:09:12;14;11;
78842;PMS5003;70542;53.774;-0.352;2024-01-16T08:14:52;9;9;
78842;PMS5003;70542;53.774;-0.352;2024-01-16T08:20:31;10;8;
78842;PMS5003;70542;53.774;-0.352;2024-01-16T08:26:14;10;10;
78842;PMS5003;70542;53.774;-0.352;2024-01-16T08:31:58;11;11;
78842;PMS5003;70542;53.774;-0.352;2024-01-16T08:37:37;10;8;
78842;PMS5003;70542;53.774;-0.352;2024-01-16T08:43:15;14;12;
78842;PMS5003;70542;53.774;-0.352;2024-01-16T08:48:54;29;20;
78842;PMS5003;70542;53.774;-0.352;2024-01-16T08:54:33;16;16;
78842;PMS5003;70542;53.774;-0.352;2024-01-16T09:00:23;12;12;
78842;PMS5003;70542;53.774;-0.352;2024-01-16T09:06:08;22;22;
78842;PMS5003;70542;53.774;-0.352;2024-01-16T09:11:58;17;17;
78842;PMS5003;70542;53.774;-0.352;2024-01-16T09:17:41;23;20;
78842;PMS5003;70542;53.774;-0.352;2024-01-16T09:23:20;14;14;
78842;PMS5003;70542;53.774;-0.352;2024-01-16T09:29:04;12;12;
78842;PMS5003;70542;53.774;-0.352;2024-01-16T09:34:43;22;19;
78842;PMS5003;70542;53.774;-0.352;2024-01-16T09:40:27;17;17;
78842;PMS5003;70542;53.774;-0.352;2024-01-16T09:46:05;37;25;
78842;PMS5003;70542;53.774;-0.352;2024-01-16T09:51:46;27;24;
78842;PMS5003;70542;53.774;-0.352;2024-01-16T09:57:25;56;56;
78842;PMS5003;70542;53.774;-0.352;2024-01-16T10:03:04;40;38;
78842;PMS5003;70542;53.774;-0.352;2024-01-16T10:08:44;31;29;
78842;PMS5003;70542;53.774;-0.352;2024-01-16T10:14:24;19;17;
78842;PMS5003;70542;53.774;-0.352;2024-01-16T10:20:03;16;16;
78842;PMS5003;70542;53.774;-0.352;2024-01-16T10:25:43;17;17;
78842;PMS5003;70542;53.774;-0.352;2024-01-16T10:31:25;19;19;
78842;PMS5003;70542;53.774;-0.352;2024-01-16T10:37:08;22;22;
78842;PMS5003;70542;53.774;-0.352;2024-01-16T10:42:56;22;22;
78842;PMS5003;70542;53.774;-0.352;2024-01-16T10:48:37;14;14;
78842;PMS5003;70542;53.774;-0.352;2024-01-16T10:54:17;13;13;
78842;PMS5003;70542;53.774;-0.352;2024-01-16T10:59:58;26;21;
78842;PMS5003;70542;53.774;-0.352;2024-01-16T11:05:40;19;19;
78842;PMS5003;70542;53.774;-0.352;2024-01-16T11:11:19;14;14;
78842;PMS5003;70542;53.774;-0.352;2024-01-16T11:17:00;12;12;
78842;PMS5003;70542;53.774;-0.352;2024-01-16T11:22:42;18;15;
78842;PMS5003;70542;53.774;-0.352;2024-01-16T11:28:26;21;12;
78842;PMS5003;70542;53.774;-0.352;2024-01-16T11:34:16;24;23;
78842;PMS5003;70542;53.774;-0.352;2024-01-16T11:46:10;17;17;
78842;PMS5003;70542;53.774;-0.352;2024-01-16T11:51:54;19;18;
78842;PMS5003;70542;53.774;-0.352;2024-01-16T11:57:42;21;21;
78842;PMS5003;70542;53.774;-0.352;2024-01-16T12:03:28;15;15;
78842;PMS5003;70542;53.774;-0.352;2024-01-16T12:09:11;15;15;
78842;PMS5003;70542;53.774;-0.352;2024-01-16T12:14:55;16;16;
78842;PMS5003;70542;53.774;-0.352;2024-01-16T12:20:35;25;25;
78842;PMS5003;70542;53.774;-0.352;2024-01-16T12:26:19;22;22;
78842;PMS5003;70542;53.774;-0.352;2024-01-16T12:32:05;20;20;
78842;PMS5003;70542;53.774;-0.352;2024-01-16T12:37:47;22;22;
78842;PMS5003;70542;53.774;-0.352;2024-01-16T12:43:38;22;19;
78842;PMS5003;70542;53.774;-0.352;2024-01-16T12:49:17;19;19;
78842;PMS5003;70542;53.774;-0.352;2024-01-16T12:54:58;26;23;
78842;PMS5003;70542;53.774;-0.352;2024-01-16T13:00:37;23;23;
78842;PMS5003;70542;53.774;-0.352;2024-01-16T13:06:22;39;37;
78842;PMS5003;70542;53.774;-0.352;2024-01-16T13:12:03;22;22;
78842;PMS5003;70542;53.774;-0.352;2024-01-16T13:17:48;50;45;
78842;PMS5003;70542;53.774;-0.352;2024-01-16T13:23:27;33;33;
78842;PMS5003;70542;53.774;-0.352;2024-01-16T13:29:11;24;24;
78842;PMS5003;70542;53.774;-0.352;2024-01-16T13:34:56;21;21;
78842;PMS5003;70542;53.774;-0.352;2024-01-16T13:40:36;13;13;
78842;PMS5003;70542;53.774;-0.352;2024-01-16T13:46:20;18;18;
78842;PMS5003;70542;53.774;-0.352;2024-01-16T13:52:04;1;1;
78842;PMS5003;70542;53.774;-0.352;2024-01-16T13:58:03;10;10;
78842;PMS5003;70542;53.774;-0.352;2024-01-16T14:03:48;18;15;
78842;PMS5003;70542;53.774;-0.352;2024-01-16T14:09:26;15;15;
78842;PMS5003;70542;53.774;-0.352;2024-01-16T14:15:07;13;10;
78842;PMS5003;70542;53.774;-0.352;2024-01-16T14:20:53;10;10;
78842;PMS5003;70542;53.774;-0.352;2024-01-16T14:26:43;6;6;
78842;PMS5003;70542;53.774;-0.352;2024-01-16T14:32:23;10;10;
78842;PMS5003;70542;53.774;-0.352;2024-01-16T14:38:06;8;6;
78842;PMS5003;70542;53.774;-0.352;2024-01-16T14:43:50;13;13;
78842;PMS5003;70542;53.774;-0.352;2024-01-16T14:49:29;12;9;
78842;PMS5003;70542;53.774;-0.352;2024-01-16T14:55:08;28;28;
78842;PMS5003;70542;53.774;-0.352;2024-01-16T15:00:47;32;32;
78842;PMS5003;70542;53.774;-0.352;2024-01-16T15:06:27;33;30;
78842;PMS5003;70542;53.774;-0.352;2024-01-16T15:12:06;27;27;
78842;PMS5003;70542;53.774;-0.352;2024-01-16T15:17:45;27;27;
78842;PMS5003;70542;53.774;-0.352;2024-01-16T15:23:30;20;20;
78842;PMS5003;70542;53.774;-0.352;2024-01-16T15:29:08;11;11;
78842;PMS5003;70542;53.774;-0.352;2024-01-16T15:34:52;9;9;
78842;PMS5003;70542;53.774;-0.352;2024-01-16T15:40:31;10;10;
78842;PMS5003;70542;53.774;-0.352;2024-01-16T15:46:11;8;8;
78842;PMS5003;70542;53.774;-0.352;2024-01-16T15:51:53;8;8;
78842;PMS5003;70542;53.774;-0.352;2024-01-16T15:57:32;12;12;
78842;PMS5003;70542;53.774;-0.352;2024-01-16T16:03:12;11;11;
78842;PMS5003;70542;53.774;-0.352;2024-01-16T16:08:50;15;15;
78842;PMS5003;70542;53.774;-0.352;2024-01-16T16:14:29;11;11;
78842;PMS5003;70542;53.774;-0.352;2024-01-16T16:20:09;14;14;
78842;PMS5003;70542;53.774;-0.352;2024-01-16T16:25:51;11;11;
78842;PMS5003;70542;53.774;-0.352;2024-01-16T16:31:30;8;8;
78842;PMS5003;70542;53.774;-0.352;2024-01-16T16:37:10;6;6;
78842;PMS5003;70542;53.774;-0.352;2024-01-16T16:42:49;10;10;
78842;PMS5003;70542;53.774;-0.352;2024-01-16T16:48:28;8;8;
78842;PMS5003;70542;53.774;-0.352;2024-01-16T16:54:08;11;11;
78842;PMS5003;70542;53.774;-0.352;2024-01-16T16:59:48;12;12;
78842;PMS5003;70542;53.774;-0.352;2024-01-16T17:05:28;10;10;
78842;PMS5003;70542;53.774;-0.352;2024-01-16T17:11:07;16;13;
78842;PMS5003;70542;53.774;-0.352;2024-01-16T17:16:45;16;16;
78842;PMS5003;70542;53.774;-0.352;2024-01-16T17:22:29;22;15;
78842;PMS5003;70542;53.774;-0.352;2024-01-16T17:28:09;9;9;
78842;PMS5003;70542;53.774;-0.352;2024-01-16T17:33:48;7;7;
78842;PMS5003;70542;53.774;-0.352;2024-01-16T17:39:27;18;18;
78842;PMS5003;70542;53.774;-0.352;2024-01-16T17:45:09;9;9;
78842;PMS5003;70542;53.774;-0.352;2024-01-16T17:50:51;16;16;
78842;PMS5003;70542;53.774;-0.352;2024-01-16T17:56:30;8;8;
78842;PMS5003;70542;53.774;-0.352;2024-01-16T18:02:09;9;7;
78842;PMS5003;70542;53.774;-0.352;2024-01-16T18:07:47;6;6;
78842;PMS5003;70542;53.774;-0.352;2024-01-16T18:13:26;5;5;
78842;PMS5003;70542;53.774;-0.352;2024-01-16T18:19:05;11;11;
78842;PMS5003;70542;53.774;-0.352;2024-01-16T18:24:44;9;9;
78842;PMS5003;70542;53.774;-0.352;2024-01-16T18:30:28;7;7;
78842;PMS5003;70542;53.774;-0.352;2024-01-16T18:36:07;11;11;
78842;PMS5003;70542;53.774;-0.352;2024-01-16T18:41:51;11;11;
78842;PMS5003;70542;53.774;-0.352;2024-01-16T18:47:30;6;6;
78842;PMS5003;70542;53.774;-0.352;2024-01-16T18:53:14;13;12;
78842;PMS5003;70542;53.774;-0.352;2024-01-16T18:58:53;12;12;
78842;PMS5003;70542;53.774;-0.352;2024-01-16T19:04:32;11;11;
78842;PMS5003;70542;53.774;-0.352;2024-01-16T19:10:21;9;9;
78842;PMS5003;70542;53.774;-0.352;2024-01-16T19:16:31;17;14;
78842;PMS5003;70542;53.774;-0.352;2024-01-16T19:22:49;13;13;
78842;PMS5003;70542;53.774;-0.352;2024-01-16T19:28:29;21;21;
78842;PMS5003;70542;53.774;-0.352;2024-01-16T19:34:19;8;8;
78842;PMS5003;70542;53.774;-0.352;2024-01-16T19:39:57;12;12;
78842;PMS5003;70542;53.774;-0.352;2024-01-16T19:45:43;16;16;
78842;PMS5003;70542;53.774;-0.352;2024-01-16T19:51:30;9;5;
78842;PMS5003;70542;53.774;-0.352;2024-01-16T19:57:14;10;10;
78842;PMS5003;70542;53.774;-0.352;2024-01-16T20:03:04;7;7;
78842;PMS5003;70542;53.774;-0.352;2024-01-16T20:09:09;5;5;
78842;PMS5003;70542;53.774;-0.352;2024-01-16T20:14:48;6;6;
78842;PMS5003;70542;53.774;-0.352;2024-01-16T20:20:27;5;5;
78842;PMS5003;70542;53.774;-0.352;2024-01-16T20:26:11;9;9;
78842;PMS5003;70542;53.774;-0.352;2024-01-16T20:32:01;15;12;
78842;PMS5003;70542;53.774;-0.352;2024-01-16T20:37:48;5;5;
78842;PMS5003;70542;53.774;-0.352;2024-01-16T20:43:29;4;4;
78842;PMS5003;70542;53.774;-0.352;2024-01-16T20:49:10;12;12;
78842;PMS5003;70542;53.774;-0.352;2024-01-16T20:54:55;5;5;
78842;PMS5003;70542;53.774;-0.352;2024-01-16T21:00:34;7;7;
78842;PMS5003;70542;53.774;-0.352;2024-01-16T21:06:23;7;7;
78842;PMS5003;70542;53.774;-0.352;2024-01-16T21:12:12;6;6;
78842;PMS5003;70542;53.774;-0.352;2024-01-16T21:17:59;7;7;
78842;PMS5003;70542;53.774;-0.352;2024-01-16T21:23:45;8;8;
78842;PMS5003;70542;53.774;-0.352;2024-01-16T21:29:28;12;12;
78842;PMS5003;70542;53.774;-0.352;2024-01-16T21:35:08;6;6;
78842;PMS5003;70542;53.774;-0.352;2024-01-16T21:40:54;11;11;
78842;PMS5003;70542;53.774;-0.352;2024-01-16T21:46:33;7;7;
78842;PMS5003;70542;53.774;-0.352;2024-01-16T21:52:13;5;5;
78842;PMS5003;70542;53.774;-0.352;2024-01-16T21:58:03;12;12;
78842;PMS5003;70542;53.774;-0.352;2024-01-16T22:03:42;9;9;
78842;PMS5003;70542;53.774;-0.352;2024-01-16T22:09:21;8;6;
78842;PMS5003;70542;53.774;-0.352;2024-01-16T22:15:00;9;9;
78842;PMS5003;70542;53.774;-0.352;2024-01-16T22:20:43;6;6;
78842;PMS5003;70542;53.774;-0.352;2024-01-16T22:26:23;11;7;
78842;PMS5003;70542;53.774;-0.352;2024-01-16T22:32:02;12;8;
78842;PMS5003;70542;53.774;-0.352;2024-01-16T22:37:41;9;9;
78842;PMS5003;70542;53.774;-0.352;2024-01-16T22:43:20;2;2;
78842;PMS5003;70542;53.774;-0.352;2024-01-16T22:48:59;6;6;
78842;PMS5003;70542;53.774;-0.352;2024-01-16T22:54:38;9;9;
78842;PMS5003;70542;53.774;-0.352;2024-01-16T23:00:18;7;7;
78842;PMS5003;70542;53.774;-0.352;2024-01-16T23:06:02;2;2;
78842;PMS5003;70542;53.774;-0.352;2024-01-16T23:11:41;4;4;
78842;PMS5003;70542;53.774;-0.352;2024-01-16T23:17:20;4;4;
78842;PMS5003;70542;53.774;-0.352;2024-01-16T23:22:59;3;3;
78842;PMS5003;70542;53.774;-0.352;2024-01-16T23:28:43;5;5;
78842;PMS5003;70542;53.774;-0.352;2024-01-16T23:34:22;5;5;
78842;PMS5003;70542;53.774;-0.352;2024-01-16T23:40:02;5;5;
78842;PMS5003;70542;53.774;-0.352;2024-01-16T23:45:41;3;3;
78842;PMS5003;70542;53.774;-0.352;2024-01-16T23:51:35;6;6;
78842;PMS5003;70542;53.774;-0.352;2024-01-16T23:57:20;5;5;
